sensor_id;sensor_type;location;lat;lon;timestamp;temperature;humidity
80258;DHT22;69565;37.974;23.708;2023-08-06T00:00:16;30.30;49.20
80258;DHT22;69565;37.974;23.708;2023-08-06T00:02:42;30.20;49.20
80258;DHT22;69565;37.974;23.708;2023-08-06T00:05:08;30.20;49.20
80258;DHT22;69565;37.974;23.708;2023-08-06T00:07:33;30.30;49.30
80258;DHT22;69565;37.974;23.708;2023-08-06T00:09:59;30.20;49.30
80258;DHT22;69565;37.974;23.708;2023-08-06T00:12:25;30.20;49.30
80258;DHT22;69565;37.974;23.708;2023-08-06T00:14:51;30.20;49.30
80258;DHT22;69565;37.974;23.708;2023-08-06T00:17:18;30.20;49.30
80258;DHT22;69565;37.974;23.708;2023-08-06T00:19:43;30.20;49.30
80258;DHT22;69565;37.974;23.708;2023-08-06T00:22:09;30.20;49.20
80258;DHT22;69565;37.974;23.708;2023-08-06T00:24:35;30.20;49.30
80258;DHT22;69565;37.974;23.708;2023-08-06T00:27:02;30.20;49.20
80258;DHT22;69565;37.974;23.708;2023-08-06T00:29:28;30.20;49.10
80258;DHT22;69565;37.974;23.708;2023-08-06T00:31:54;30.20;49.10
80258;DHT22;69565;37.974;23.708;2023-08-06T00:34:19;30.20;49.20
80258;DHT22;69565;37.974;23.708;2023-08-06T00:36:45;30.20;49.20
80258;DHT22;69565;37.974;23.708;2023-08-06T00:39:11;30.20;49.10
80258;DHT22;69565;37.974;23.708;2023-08-06T00:41:37;30.20;49.20
80258;DHT22;69565;37.974;23.708;2023-08-06T00:44:03;30.20;49.10
80258;DHT22;69565;37.974;23.708;2023-08-06T00:46:29;30.10;49.00
80258;DHT22;69565;37.974;23.708;2023-08-06T00:48:55;30.20;49.20
80258;DHT22;69565;37.974;23.708;2023-08-06T00:51:22;30.20;49.20
80258;DHT22;69565;37.974;23.708;2023-08-06T00:53:50;30.20;49.10
80258;DHT22;69565;37.974;23.708;2023-08-06T00:56:16;30.20;49.10
80258;DHT22;69565;37.974;23.708;2023-08-06T00:58:42;30.20;49.10
80258;DHT22;69565;37.974;23.708;2023-08-06T01:01:08;30.20;49.00
80258;DHT22;69565;37.974;23.708;2023-08-06T01:03:34;30.20;49.00
80258;DHT22;69565;37.974;23.708;2023-08-06T01:06:00;30.20;49.00
80258;DHT22;69565;37.974;23.708;2023-08-06T01:08:48;30.20;49.00
80258;DHT22;69565;37.974;23.708;2023-08-06T01:11:38;30.20;49.00
80258;DHT22;69565;37.974;23.708;2023-08-06T01:14:18;30.20;49.00
80258;DHT22;69565;37.974;23.708;2023-08-06T01:16:46;30.10;49.00
80258;DHT22;69565;37.974;23.708;2023-08-06T01:19:20;30.10;49.10
80258;DHT22;69565;37.974;23.708;2023-08-06T01:21:45;30.10;49.20
80258;DHT22;69565;37.974;23.708;2023-08-06T01:24:12;30.10;49.20
80258;DHT22;69565;37.974;23.708;2023-08-06T01:27:00;30.10;49.30
80258;DHT22;69565;37.974;23.708;2023-08-06T01:29:34;30.10;49.20
80258;DHT22;69565;37.974;23.708;2023-08-06T01:32:02;30.10;49.20
80258;DHT22;69565;37.974;23.708;2023-08-06T01:34:31;30.10;49.20
80258;DHT22;69565;37.974;23.708;2023-08-06T01:36:59;30.00;49.10
80258;DHT22;69565;37.974;23.708;2023-08-06T01:39:26;30.00;49.10
80258;DHT22;69565;37.974;23.708;2023-08-06T01:41:52;30.00;49.10
80258;DHT22;69565;37.974;23.708;2023-08-06T01:44:18;30.00;49.00
80258;DHT22;69565;37.974;23.708;2023-08-06T01:46:43;30.00;49.10
80258;DHT22;69565;37.974;23.708;2023-08-06T01:49:09;30.00;49.10
80258;DHT22;69565;37.974;23.708;2023-08-06T01:51:35;30.00;49.10
80258;DHT22;69565;37.974;23.708;2023-08-06T01:54:00;30.00;49.10
80258;DHT22;69565;37.974;23.708;2023-08-06T01:56:26;30.00;49.20
80258;DHT22;69565;37.974;23.708;2023-08-06T01:58:52;30.00;49.20
80258;DHT22;69565;37.974;23.708;2023-08-06T02:01:18;30.00;49.20
80258;DHT22;69565;37.974;23.708;2023-08-06T02:03:43;30.00;49.30
80258;DHT22;69565;37.974;23.708;2023-08-06T02:06:09;30.00;49.20
80258;DHT22;69565;37.974;23.708;2023-08-06T02:08:35;30.00;49.30
80258;DHT22;69565;37.974;23.708;2023-08-06T02:11:00;30.10;49.30
80258;DHT22;69565;37.974;23.708;2023-08-06T02:13:27;30.00;49.40
80258;DHT22;69565;37.974;23.708;2023-08-06T02:15:53;30.00;49.30
80258;DHT22;69565;37.974;23.708;2023-08-06T02:18:18;30.00;49.40
80258;DHT22;69565;37.974;23.708;2023-08-06T02:20:57;30.00;49.40
80258;DHT22;69565;37.974;23.708;2023-08-06T02:23:24;30.00;49.40
80258;DHT22;69565;37.974;23.708;2023-08-06T02:26:00;30.00;49.40
80258;DHT22;69565;37.974;23.708;2023-08-06T02:28:26;30.00;49.50
80258;DHT22;69565;37.974;23.708;2023-08-06T02:30:52;30.00;49.50
80258;DHT22;69565;37.974;23.708;2023-08-06T02:33:18;30.00;49.50
80258;DHT22;69565;37.974;23.708;2023-08-06T02:35:44;30.00;49.50
80258;DHT22;69565;37.974;23.708;2023-08-06T02:38:09;30.00;49.50
80258;DHT22;69565;37.974;23.708;2023-08-06T02:40:35;30.00;49.50
80258;DHT22;69565;37.974;23.708;2023-08-06T02:43:01;30.00;49.60
80258;DHT22;69565;37.974;23.708;2023-08-06T02:45:26;29.90;49.50
80258;DHT22;69565;37.974;23.708;2023-08-06T02:47:52;30.00;49.60
80258;DHT22;69565;37.974;23.708;2023-08-06T02:50:18;29.90;49.50
80258;DHT22;69565;37.974;23.708;2023-08-06T02:52:43;30.00;49.50
80258;DHT22;69565;37.974;23.708;2023-08-06T02:55:09;29.90;49.50
80258;DHT22;69565;37.974;23.708;2023-08-06T02:57:35;30.00;49.50
80258;DHT22;69565;37.974;23.708;2023-08-06T03:00:01;29.90;49.40
80258;DHT22;69565;37.974;23.708;2023-08-06T03:02:26;29.90;49.40
80258;DHT22;69565;37.974;23.708;2023-08-06T03:04:52;29.90;49.30
80258;DHT22;69565;37.974;23.708;2023-08-06T03:07:18;29.90;49.30
80258;DHT22;69565;37.974;23.708;2023-08-06T03:09:43;29.90;49.20
80258;DHT22;69565;37.974;23.708;2023-08-06T03:12:09;29.90;49.10
80258;DHT22;69565;37.974;23.708;2023-08-06T03:14:35;29.90;49.00
80258;DHT22;69565;37.974;23.708;2023-08-06T03:17:00;29.90;49.10
80258;DHT22;69565;37.974;23.708;2023-08-06T03:19:26;29.90;49.00
80258;DHT22;69565;37.974;23.708;2023-08-06T03:21:52;29.90;49.00
80258;DHT22;69565;37.974;23.708;2023-08-06T03:24:17;29.90;49.00
80258;DHT22;69565;37.974;23.708;2023-08-06T03:26:43;29.90;49.00
80258;DHT22;69565;37.974;23.708;2023-08-06T03:29:09;29.90;48.90
80258;DHT22;69565;37.974;23.708;2023-08-06T03:31:34;29.90;48.90
80258;DHT22;69565;37.974;23.708;2023-08-06T03:34:00;29.90;48.90
80258;DHT22;69565;37.974;23.708;2023-08-06T03:36:26;29.90;49.90
80258;DHT22;69565;37.974;23.708;2023-08-06T03:38:51;29.90;48.80
80258;DHT22;69565;37.974;23.708;2023-08-06T03:41:17;29.90;48.70
80258;DHT22;69565;37.974;23.708;2023-08-06T03:43:43;29.90;49.70
80258;DHT22;69565;37.974;23.708;2023-08-06T03:46:08;29.90;48.60
80258;DHT22;69565;37.974;23.708;2023-08-06T03:48:34;29.80;48.50
80258;DHT22;69565;37.974;23.708;2023-08-06T03:51:00;29.80;48.60
80258;DHT22;69565;37.974;23.708;2023-08-06T03:53:27;29.80;48.50
80258;DHT22;69565;37.974;23.708;2023-08-06T03:55:53;29.80;48.60
80258;DHT22;69565;37.974;23.708;2023-08-06T03:58:18;29.80;48.50
80258;DHT22;69565;37.974;23.708;2023-08-06T04:00:44;29.80;48.40
80258;DHT22;69565;37.974;23.708;2023-08-06T04:03:10;29.80;48.40
80258;DHT22;69565;37.974;23.708;2023-08-06T04:05:35;29.90;48.40
80258;DHT22;69565;37.974;23.708;2023-08-06T04:08:01;29.90;48.30
80258;DHT22;69565;37.974;23.708;2023-08-06T04:10:27;29.90;48.20
80258;DHT22;69565;37.974;23.708;2023-08-06T04:12:53;30.00;48.10
80258;DHT22;69565;37.974;23.708;2023-08-06T04:15:18;30.00;48.10
80258;DHT22;69565;37.974;23.708;2023-08-06T04:17:44;30.00;47.90
80258;DHT22;69565;37.974;23.708;2023-08-06T04:20:10;30.00;47.70
80258;DHT22;69565;37.974;23.708;2023-08-06T04:22:35;30.10;47.70
80258;DHT22;69565;37.974;23.708;2023-08-06T04:25:01;30.10;47.50
80258;DHT22;69565;37.974;23.708;2023-08-06T04:27:27;30.20;47.40
80258;DHT22;69565;37.974;23.708;2023-08-06T04:29:53;30.20;47.20
80258;DHT22;69565;37.974;23.708;2023-08-06T04:32:19;30.20;47.00
80258;DHT22;69565;37.974;23.708;2023-08-06T04:34:45;30.30;46.90
80258;DHT22;69565;37.974;23.708;2023-08-06T04:37:10;30.30;46.80
80258;DHT22;69565;37.974;23.708;2023-08-06T04:39:36;30.40;46.70
80258;DHT22;69565;37.974;23.708;2023-08-06T04:42:02;30.50;46.60
80258;DHT22;69565;37.974;23.708;2023-08-06T04:44:28;30.60;46.40
80258;DHT22;69565;37.974;23.708;2023-08-06T04:46:53;30.60;46.20
80258;DHT22;69565;37.974;23.708;2023-08-06T04:49:22;30.60;46.00
80258;DHT22;69565;37.974;23.708;2023-08-06T04:51:48;30.70;45.80
80258;DHT22;69565;37.974;23.708;2023-08-06T04:54:14;30.80;45.80
80258;DHT22;69565;37.974;23.708;2023-08-06T04:56:40;30.80;45.50
80258;DHT22;69565;37.974;23.708;2023-08-06T04:59:05;30.80;45.30
80258;DHT22;69565;37.974;23.708;2023-08-06T05:01:31;30.90;45.20
80258;DHT22;69565;37.974;23.708;2023-08-06T05:03:57;31.00;45.10
80258;DHT22;69565;37.974;23.708;2023-08-06T05:06:23;31.00;44.80
80258;DHT22;69565;37.974;23.708;2023-08-06T05:08:48;31.10;44.80
80258;DHT22;69565;37.974;23.708;2023-08-06T05:11:14;31.10;44.40
80258;DHT22;69565;37.974;23.708;2023-08-06T05:13:40;31.20;44.30
80258;DHT22;69565;37.974;23.708;2023-08-06T05:16:06;31.20;44.10
80258;DHT22;69565;37.974;23.708;2023-08-06T05:18:31;31.30;44.00
80258;DHT22;69565;37.974;23.708;2023-08-06T05:20:59;31.40;43.80
80258;DHT22;69565;37.974;23.708;2023-08-06T05:23:25;31.40;43.50
80258;DHT22;69565;37.974;23.708;2023-08-06T05:25:51;31.50;43.30
80258;DHT22;69565;37.974;23.708;2023-08-06T05:28:16;31.50;43.10
80258;DHT22;69565;37.974;23.708;2023-08-06T05:30:42;31.60;43.00
80258;DHT22;69565;37.974;23.708;2023-08-06T05:33:08;31.70;42.80
80258;DHT22;69565;37.974;23.708;2023-08-06T05:35:34;31.70;42.70
80258;DHT22;69565;37.974;23.708;2023-08-06T05:37:59;31.80;42.50
80258;DHT22;69565;37.974;23.708;2023-08-06T05:40:25;31.90;42.30
80258;DHT22;69565;37.974;23.708;2023-08-06T05:42:54;31.90;42.10
80258;DHT22;69565;37.974;23.708;2023-08-06T05:45:20;32.00;41.90
80258;DHT22;69565;37.974;23.708;2023-08-06T05:47:48;32.00;41.60
80258;DHT22;69565;37.974;23.708;2023-08-06T05:50:13;32.10;41.50
80258;DHT22;69565;37.974;23.708;2023-08-06T05:52:39;32.20;41.30
80258;DHT22;69565;37.974;23.708;2023-08-06T05:55:05;32.30;41.10
80258;DHT22;69565;37.974;23.708;2023-08-06T05:57:31;32.30;40.90
80258;DHT22;69565;37.974;23.708;2023-08-06T05:59:57;32.40;40.80
80258;DHT22;69565;37.974;23.708;2023-08-06T06:02:22;32.50;41.60
80258;DHT22;69565;37.974;23.708;2023-08-06T06:04:48;32.50;40.30
80258;DHT22;69565;37.974;23.708;2023-08-06T06:07:14;32.60;40.20
80258;DHT22;69565;37.974;23.708;2023-08-06T06:09:40;32.70;40.00
80258;DHT22;69565;37.974;23.708;2023-08-06T06:12:06;32.80;39.90
80258;DHT22;69565;37.974;23.708;2023-08-06T06:14:32;32.80;39.60
80258;DHT22;69565;37.974;23.708;2023-08-06T06:16:59;32.90;39.50
80258;DHT22;69565;37.974;23.708;2023-08-06T06:19:25;33.00;39.30
80258;DHT22;69565;37.974;23.708;2023-08-06T06:21:51;33.10;39.20
80258;DHT22;69565;37.974;23.708;2023-08-06T06:24:17;33.20;39.00
80258;DHT22;69565;37.974;23.708;2023-08-06T06:26:43;33.30;38.90
80258;DHT22;69565;37.974;23.708;2023-08-06T06:29:08;33.40;38.80
80258;DHT22;69565;37.974;23.708;2023-08-06T06:31:34;33.40;38.60
80258;DHT22;69565;37.974;23.708;2023-08-06T06:34:00;33.50;38.40
80258;DHT22;69565;37.974;23.708;2023-08-06T06:36:26;33.50;38.30
80258;DHT22;69565;37.974;23.708;2023-08-06T06:38:52;33.60;38.10
80258;DHT22;69565;37.974;23.708;2023-08-06T06:41:18;33.70;38.10
80258;DHT22;69565;37.974;23.708;2023-08-06T06:43:44;33.70;37.90
80258;DHT22;69565;37.974;23.708;2023-08-06T06:46:09;33.80;37.70
80258;DHT22;69565;37.974;23.708;2023-08-06T06:48:35;33.80;37.50
80258;DHT22;69565;37.974;23.708;2023-08-06T06:51:01;33.90;37.30
80258;DHT22;69565;37.974;23.708;2023-08-06T06:53:27;33.90;37.20
80258;DHT22;69565;37.974;23.708;2023-08-06T06:56:03;34.00;37.00
80258;DHT22;69565;37.974;23.708;2023-08-06T06:58:32;34.10;36.90
80258;DHT22;69565;37.974;23.708;2023-08-06T07:00:58;34.10;36.70
80258;DHT22;69565;37.974;23.708;2023-08-06T07:03:24;34.20;36.60
80258;DHT22;69565;37.974;23.708;2023-08-06T07:05:50;34.20;36.40
80258;DHT22;69565;37.974;23.708;2023-08-06T07:08:16;34.30;36.30
80258;DHT22;69565;37.974;23.708;2023-08-06T07:10:42;34.40;36.10
80258;DHT22;69565;37.974;23.708;2023-08-06T07:13:09;34.40;35.80
80258;DHT22;69565;37.974;23.708;2023-08-06T07:15:35;34.50;35.80
80258;DHT22;69565;37.974;23.708;2023-08-06T07:18:01;34.50;35.70
80258;DHT22;69565;37.974;23.708;2023-08-06T07:20:27;34.50;35.50
80258;DHT22;69565;37.974;23.708;2023-08-06T07:22:57;34.50;35.30
80258;DHT22;69565;37.974;23.708;2023-08-06T07:25:22;34.60;35.20
80258;DHT22;69565;37.974;23.708;2023-08-06T07:27:48;34.60;35.00
80258;DHT22;69565;37.974;23.708;2023-08-06T07:30:14;34.70;35.00
80258;DHT22;69565;37.974;23.708;2023-08-06T07:32:39;34.70;34.80
80258;DHT22;69565;37.974;23.708;2023-08-06T07:35:05;34.70;34.70
80258;DHT22;69565;37.974;23.708;2023-08-06T07:37:33;34.70;34.50
80258;DHT22;69565;37.974;23.708;2023-08-06T07:39:59;34.80;34.50
80258;DHT22;69565;37.974;23.708;2023-08-06T07:42:24;34.80;34.40
80258;DHT22;69565;37.974;23.708;2023-08-06T07:44:59;34.80;34.40
80258;DHT22;69565;37.974;23.708;2023-08-06T07:47:25;34.80;34.30
80258;DHT22;69565;37.974;23.708;2023-08-06T07:49:50;34.60;34.30
80258;DHT22;69565;37.974;23.708;2023-08-06T07:52:16;34.50;34.40
80258;DHT22;69565;37.974;23.708;2023-08-06T07:54:42;34.30;34.70
80258;DHT22;69565;37.974;23.708;2023-08-06T07:57:08;34.20;34.90
80258;DHT22;69565;37.974;23.708;2023-08-06T07:59:33;34.10;35.00
80258;DHT22;69565;37.974;23.708;2023-08-06T08:02:00;34.00;35.30
80258;DHT22;69565;37.974;23.708;2023-08-06T08:04:26;33.80;35.30
80258;DHT22;69565;37.974;23.708;2023-08-06T08:06:51;33.80;35.50
80258;DHT22;69565;37.974;23.708;2023-08-06T08:09:17;33.70;35.60
80258;DHT22;69565;37.974;23.708;2023-08-06T08:11:43;33.70;35.80
80258;DHT22;69565;37.974;23.708;2023-08-06T08:14:09;33.60;35.80
80258;DHT22;69565;37.974;23.708;2023-08-06T08:16:35;33.50;35.80
80258;DHT22;69565;37.974;23.708;2023-08-06T08:19:01;33.40;35.90
80258;DHT22;69565;37.974;23.708;2023-08-06T08:21:27;33.40;36.00
80258;DHT22;69565;37.974;23.708;2023-08-06T08:23:52;33.30;36.10
80258;DHT22;69565;37.974;23.708;2023-08-06T08:26:18;33.20;36.20
80258;DHT22;69565;37.974;23.708;2023-08-06T08:28:44;33.10;36.40
80258;DHT22;69565;37.974;23.708;2023-08-06T08:31:10;33.00;36.50
80258;DHT22;69565;37.974;23.708;2023-08-06T08:33:39;33.00;36.50
80258;DHT22;69565;37.974;23.708;2023-08-06T08:36:05;33.00;36.60
80258;DHT22;69565;37.974;23.708;2023-08-06T08:38:31;32.90;36.60
80258;DHT22;69565;37.974;23.708;2023-08-06T08:40:57;32.90;36.60
80258;DHT22;69565;37.974;23.708;2023-08-06T08:43:23;32.90;36.70
80258;DHT22;69565;37.974;23.708;2023-08-06T08:45:53;32.90;36.60
80258;DHT22;69565;37.974;23.708;2023-08-06T08:48:24;32.90;36.70
80258;DHT22;69565;37.974;23.708;2023-08-06T08:50:50;32.80;36.60
80258;DHT22;69565;37.974;23.708;2023-08-06T08:53:17;32.80;36.80
80258;DHT22;69565;37.974;23.708;2023-08-06T08:55:46;32.80;36.90
80258;DHT22;69565;37.974;23.708;2023-08-06T08:58:12;32.70;36.90
80258;DHT22;69565;37.974;23.708;2023-08-06T09:00:39;32.70;36.80
80258;DHT22;69565;37.974;23.708;2023-08-06T09:03:06;32.70;36.90
80258;DHT22;69565;37.974;23.708;2023-08-06T09:05:33;32.60;36.90
80258;DHT22;69565;37.974;23.708;2023-08-06T09:08:05;32.60;36.90
80258;DHT22;69565;37.974;23.708;2023-08-06T09:10:31;32.60;36.90
80258;DHT22;69565;37.974;23.708;2023-08-06T09:12:57;32.60;37.00
80258;DHT22;69565;37.974;23.708;2023-08-06T09:15:27;32.60;37.00
80258;DHT22;69565;37.974;23.708;2023-08-06T09:17:54;32.60;36.90
80258;DHT22;69565;37.974;23.708;2023-08-06T09:20:20;32.60;37.00
80258;DHT22;69565;37.974;23.708;2023-08-06T09:22:46;32.60;37.00
80258;DHT22;69565;37.974;23.708;2023-08-06T09:25:21;32.60;37.00
80258;DHT22;69565;37.974;23.708;2023-08-06T09:27:49;32.70;36.90
80258;DHT22;69565;37.974;23.708;2023-08-06T09:30:31;32.70;36.80
80258;DHT22;69565;37.974;23.708;2023-08-06T09:32:57;32.70;36.50
80258;DHT22;69565;37.974;23.708;2023-08-06T09:35:23;32.70;36.70
80258;DHT22;69565;37.974;23.708;2023-08-06T09:37:49;32.60;36.50
80258;DHT22;69565;37.974;23.708;2023-08-06T09:40:29;32.60;36.70
80258;DHT22;69565;37.974;23.708;2023-08-06T09:42:55;32.50;36.80
80258;DHT22;69565;37.974;23.708;2023-08-06T09:45:21;32.50;36.70
80258;DHT22;69565;37.974;23.708;2023-08-06T09:47:49;32.50;36.80
80258;DHT22;69565;37.974;23.708;2023-08-06T09:50:16;32.40;36.90
80258;DHT22;69565;37.974;23.708;2023-08-06T09:52:42;32.40;36.90
80258;DHT22;69565;37.974;23.708;2023-08-06T09:55:10;32.40;36.90
80258;DHT22;69565;37.974;23.708;2023-08-06T09:57:37;32.40;36.90
80258;DHT22;69565;37.974;23.708;2023-08-06T10:00:04;32.30;36.90
80258;DHT22;69565;37.974;23.708;2023-08-06T10:02:32;32.30;36.70
80258;DHT22;69565;37.974;23.708;2023-08-06T10:04:59;32.20;36.60
80258;DHT22;69565;37.974;23.708;2023-08-06T10:07:25;32.20;36.70
80258;DHT22;69565;37.974;23.708;2023-08-06T10:09:51;32.20;36.70
80258;DHT22;69565;37.974;23.708;2023-08-06T10:12:17;32.20;36.60
80258;DHT22;69565;37.974;23.708;2023-08-06T10:14:45;32.20;36.70
80258;DHT22;69565;37.974;23.708;2023-08-06T10:17:12;32.30;36.60
80258;DHT22;69565;37.974;23.708;2023-08-06T10:19:38;32.30;36.40
80258;DHT22;69565;37.974;23.708;2023-08-06T10:24:55;32.20;36.50
80258;DHT22;69565;37.974;23.708;2023-08-06T10:27:34;32.20;36.40
80258;DHT22;69565;37.974;23.708;2023-08-06T10:30:25;32.20;36.40
80258;DHT22;69565;37.974;23.708;2023-08-06T10:33:00;32.20;36.20
80258;DHT22;69565;37.974;23.708;2023-08-06T10:40:29;32.10;36.20
80258;DHT22;69565;37.974;23.708;2023-08-06T10:43:02;32.10;36.10
80258;DHT22;69565;37.974;23.708;2023-08-06T10:45:28;32.00;36.00
80258;DHT22;69565;37.974;23.708;2023-08-06T10:47:55;32.10;36.10
80258;DHT22;69565;37.974;23.708;2023-08-06T10:50:22;32.00;36.00
80258;DHT22;69565;37.974;23.708;2023-08-06T10:52:48;32.10;36.00
80258;DHT22;69565;37.974;23.708;2023-08-06T10:55:14;32.00;35.80
80258;DHT22;69565;37.974;23.708;2023-08-06T10:57:40;32.00;35.80
80258;DHT22;69565;37.974;23.708;2023-08-06T11:00:08;32.00;35.80
80258;DHT22;69565;37.974;23.708;2023-08-06T11:02:35;32.00;35.80
80258;DHT22;69565;37.974;23.708;2023-08-06T11:05:08;31.90;35.80
80258;DHT22;69565;37.974;23.708;2023-08-06T11:07:37;32.00;35.90
80258;DHT22;69565;37.974;23.708;2023-08-06T11:10:08;32.00;35.80
80258;DHT22;69565;37.974;23.708;2023-08-06T11:12:34;32.00;35.90
80258;DHT22;69565;37.974;23.708;2023-08-06T11:15:01;31.90;35.80
80258;DHT22;69565;37.974;23.708;2023-08-06T11:17:28;31.90;35.70
80258;DHT22;69565;37.974;23.708;2023-08-06T11:19:54;32.00;35.80
80258;DHT22;69565;37.974;23.708;2023-08-06T11:22:23;31.90;35.60
80258;DHT22;69565;37.974;23.708;2023-08-06T11:24:49;31.90;35.70
80258;DHT22;69565;37.974;23.708;2023-08-06T11:27:16;31.90;35.80
80258;DHT22;69565;37.974;23.708;2023-08-06T11:29:43;31.90;35.70
80258;DHT22;69565;37.974;23.708;2023-08-06T11:32:09;31.90;35.70
80258;DHT22;69565;37.974;23.708;2023-08-06T11:34:36;31.90;35.70
80258;DHT22;69565;37.974;23.708;2023-08-06T11:37:06;31.90;35.60
80258;DHT22;69565;37.974;23.708;2023-08-06T11:39:33;31.90;35.60
80258;DHT22;69565;37.974;23.708;2023-08-06T11:41:59;31.90;35.60
80258;DHT22;69565;37.974;23.708;2023-08-06T11:44:30;31.90;35.50
80258;DHT22;69565;37.974;23.708;2023-08-06T11:46:57;31.80;35.30
80258;DHT22;69565;37.974;23.708;2023-08-06T11:49:49;31.80;35.40
80258;DHT22;69565;37.974;23.708;2023-08-06T11:52:22;31.80;35.20
80258;DHT22;69565;37.974;23.708;2023-08-06T11:57:31;31.80;35.20
80258;DHT22;69565;37.974;23.708;2023-08-06T12:00:02;31.70;35.10
80258;DHT22;69565;37.974;23.708;2023-08-06T12:02:34;31.70;35.00
80258;DHT22;69565;37.974;23.708;2023-08-06T12:07:41;31.70;34.80
80258;DHT22;69565;37.974;23.708;2023-08-06T12:10:07;31.70;34.80
80258;DHT22;69565;37.974;23.708;2023-08-06T12:12:34;31.70;34.80
80258;DHT22;69565;37.974;23.708;2023-08-06T12:15:00;31.70;34.70
80258;DHT22;69565;37.974;23.708;2023-08-06T12:17:27;31.70;34.70
80258;DHT22;69565;37.974;23.708;2023-08-06T12:19:53;31.70;34.70
80258;DHT22;69565;37.974;23.708;2023-08-06T12:22:19;31.70;34.70
80258;DHT22;69565;37.974;23.708;2023-08-06T12:24:46;31.70;34.70
80258;DHT22;69565;37.974;23.708;2023-08-06T12:27:12;31.70;34.70
80258;DHT22;69565;37.974;23.708;2023-08-06T12:29:43;31.70;34.60
80258;DHT22;69565;37.974;23.708;2023-08-06T12:32:12;31.60;34.50
80258;DHT22;69565;37.974;23.708;2023-08-06T12:34:39;31.70;34.60
80258;DHT22;69565;37.974;23.708;2023-08-06T12:37:05;31.70;34.60
80258;DHT22;69565;37.974;23.708;2023-08-06T12:39:31;31.60;34.40
80258;DHT22;69565;37.974;23.708;2023-08-06T12:41:58;31.60;34.40
80258;DHT22;69565;37.974;23.708;2023-08-06T12:44:24;31.70;34.50
80258;DHT22;69565;37.974;23.708;2023-08-06T12:46:51;31.70;34.40
80258;DHT22;69565;37.974;23.708;2023-08-06T12:49:17;31.70;34.30
80258;DHT22;69565;37.974;23.708;2023-08-06T12:51:43;31.60;34.30
80258;DHT22;69565;37.974;23.708;2023-08-06T12:54:09;31.60;34.30
80258;DHT22;69565;37.974;23.708;2023-08-06T12:56:35;31.60;34.30
80258;DHT22;69565;37.974;23.708;2023-08-06T12:59:00;31.60;34.30
80258;DHT22;69565;37.974;23.708;2023-08-06T13:01:26;31.60;34.30
80258;DHT22;69565;37.974;23.708;2023-08-06T13:03:52;31.60;34.30
80258;DHT22;69565;37.974;23.708;2023-08-06T13:06:18;31.60;34.40
80258;DHT22;69565;37.974;23.708;2023-08-06T13:08:43;31.50;34.30
80258;DHT22;69565;37.974;23.708;2023-08-06T13:11:09;31.60;34.30
80258;DHT22;69565;37.974;23.708;2023-08-06T13:13:35;31.50;34.20
80258;DHT22;69565;37.974;23.708;2023-08-06T13:16:01;31.60;34.20
80258;DHT22;69565;37.974;23.708;2023-08-06T13:18:27;31.50;34.20
80258;DHT22;69565;37.974;23.708;2023-08-06T13:20:54;31.50;34.00
80258;DHT22;69565;37.974;23.708;2023-08-06T13:23:20;31.50;34.00
80258;DHT22;69565;37.974;23.708;2023-08-06T13:25:46;31.50;33.90
80258;DHT22;69565;37.974;23.708;2023-08-06T13:28:12;31.50;33.90
80258;DHT22;69565;37.974;23.708;2023-08-06T13:30:39;31.50;33.70
80258;DHT22;69565;37.974;23.708;2023-08-06T13:33:09;31.50;33.60
80258;DHT22;69565;37.974;23.708;2023-08-06T13:35:34;31.50;33.60
80258;DHT22;69565;37.974;23.708;2023-08-06T13:38:00;31.50;33.60
80258;DHT22;69565;37.974;23.708;2023-08-06T13:40:29;31.50;33.60
80258;DHT22;69565;37.974;23.708;2023-08-06T13:42:55;31.50;33.50
80258;DHT22;69565;37.974;23.708;2023-08-06T13:45:21;31.50;33.40
80258;DHT22;69565;37.974;23.708;2023-08-06T13:47:47;31.50;33.40
80258;DHT22;69565;37.974;23.708;2023-08-06T13:50:13;31.50;33.30
80258;DHT22;69565;37.974;23.708;2023-08-06T13:52:39;31.50;33.20
80258;DHT22;69565;37.974;23.708;2023-08-06T13:55:05;31.40;33.10
80258;DHT22;69565;37.974;23.708;2023-08-06T13:57:31;31.40;33.00
80258;DHT22;69565;37.974;23.708;2023-08-06T13:59:57;31.40;32.80
80258;DHT22;69565;37.974;23.708;2023-08-06T14:02:23;31.40;32.70
80258;DHT22;69565;37.974;23.708;2023-08-06T14:04:49;31.40;32.60
80258;DHT22;69565;37.974;23.708;2023-08-06T14:07:15;31.40;32.60
80258;DHT22;69565;37.974;23.708;2023-08-06T14:09:41;31.40;32.50
80258;DHT22;69565;37.974;23.708;2023-08-06T14:12:07;31.40;32.50
80258;DHT22;69565;37.974;23.708;2023-08-06T14:14:33;31.40;32.60
80258;DHT22;69565;37.974;23.708;2023-08-06T14:16:59;31.40;32.50
80258;DHT22;69565;37.974;23.708;2023-08-06T14:19:25;31.40;32.50
80258;DHT22;69565;37.974;23.708;2023-08-06T14:21:50;31.40;32.50
80258;DHT22;69565;37.974;23.708;2023-08-06T14:24:16;31.40;32.60
80258;DHT22;69565;37.974;23.708;2023-08-06T14:26:42;31.40;32.60
80258;DHT22;69565;37.974;23.708;2023-08-06T14:29:07;31.30;32.50
80258;DHT22;69565;37.974;23.708;2023-08-06T14:31:33;31.30;32.50
80258;DHT22;69565;37.974;23.708;2023-08-06T14:33:59;31.30;32.50
80258;DHT22;69565;37.974;23.708;2023-08-06T14:36:26;31.30;32.50
80258;DHT22;69565;37.974;23.708;2023-08-06T14:38:51;31.30;32.50
80258;DHT22;69565;37.974;23.708;2023-08-06T14:41:17;31.30;32.50
80258;DHT22;69565;37.974;23.708;2023-08-06T14:43:43;31.30;32.50
80258;DHT22;69565;37.974;23.708;2023-08-06T14:46:08;31.30;32.40
80258;DHT22;69565;37.974;23.708;2023-08-06T14:48:34;31.30;32.50
80258;DHT22;69565;37.974;23.708;2023-08-06T14:51:00;31.30;32.50
80258;DHT22;69565;37.974;23.708;2023-08-06T14:53:26;31.30;32.50
80258;DHT22;69565;37.974;23.708;2023-08-06T14:55:52;31.30;32.60
80258;DHT22;69565;37.974;23.708;2023-08-06T14:58:17;31.30;32.50
80258;DHT22;69565;37.974;23.708;2023-08-06T15:00:44;31.30;32.60
80258;DHT22;69565;37.974;23.708;2023-08-06T15:03:10;31.30;32.60
80258;DHT22;69565;37.974;23.708;2023-08-06T15:05:36;31.30;32.70
80258;DHT22;69565;37.974;23.708;2023-08-06T15:08:02;31.30;32.70
80258;DHT22;69565;37.974;23.708;2023-08-06T15:10:28;31.30;32.70
80258;DHT22;69565;37.974;23.708;2023-08-06T15:12:54;31.30;32.80
80258;DHT22;69565;37.974;23.708;2023-08-06T15:15:20;31.30;32.90
80258;DHT22;69565;37.974;23.708;2023-08-06T15:17:46;31.30;32.90
80258;DHT22;69565;37.974;23.708;2023-08-06T15:20:12;31.30;33.00
80258;DHT22;69565;37.974;23.708;2023-08-06T15:22:37;31.30;33.00
80258;DHT22;69565;37.974;23.708;2023-08-06T15:25:04;31.20;33.00